Time;durP1;ratioP1;P1;durP2;ratioP2;P2;SDS_P1;SDS_P2;PMS_P1;PMS_P2;Temp;Humidity;BMP_temperature;BMP_pressure;BME280_temperature;BME280_humidity;BME280_pressure;Samples;Min_cycle;Max_cycle;Signal;HPM_P1;HPM_P2
2024/03/14 00:02:06;;;;;;;1.57;1.10;;;11.70;98.20;;;;;;6063272;23;20450;-82
2024/03/14 00:04:34;;;;;;;1.50;1.00;;;11.70;98.20;;;;;;6077938;23;20430;-81
2024/03/14 00:07:02;;;;;;;1.50;1.00;;;11.70;98.20;;;;;;6063790;23;20772;-81
2024/03/14 00:09:29;;;;;;;1.50;1.10;;;11.70;98.20;;;;;;6087117;23;20501;-82
2024/03/14 00:11:56;;;;;;;1.53;1.00;;;11.60;98.20;;;;;;6068105;23;20451;-81
2024/03/14 00:14:22;;;;;;;1.57;1.03;;;11.70;98.20;;;;;;6076847;23;20419;-81
2024/03/14 00:16:52;;;;;;;1.53;1.00;;;11.60;98.20;;;;;;6069389;23;20536;-81
2024/03/14 00:19:19;;;;;;;1.50;1.10;;;11.60;98.20;;;;;;6071290;23;21022;-79
2024/03/14 00:21:46;;;;;;;1.53;1.00;;;11.60;98.20;;;;;;6057092;23;20454;-79
2024/03/14 00:24:13;;;;;;;1.50;1.10;;;11.60;98.20;;;;;;6076457;23;20457;-82
2024/03/14 00:26:40;;;;;;;1.50;1.00;;;11.60;98.20;;;;;;6062138;23;20450;-81
2024/03/14 00:29:07;;;;;;;1.80;1.43;;;11.60;98.20;;;;;;6077380;23;20470;-81
2024/03/14 00:31:37;;;;;;;1.50;1.00;;;11.60;98.20;;;;;;6062696;23;20946;-80
2024/03/14 00:34:05;;;;;;;1.53;1.10;;;11.60;98.20;;;;;;6074188;23;20521;-79
2024/03/14 00:36:32;;;;;;;1.60;1.13;;;11.50;98.20;;;;;;6053758;23;20466;-79
2024/03/14 00:38:58;;;;;;;1.50;1.00;;;11.50;98.20;;;;;;6068846;23;20485;-78
2024/03/14 00:41:25;;;;;;;1.53;1.10;;;11.50;98.20;;;;;;6052580;23;21172;-77
2024/03/14 00:43:52;;;;;;;1.57;1.13;;;11.50;98.20;;;;;;6066824;23;20415;-79
2024/03/14 00:46:19;;;;;;;1.50;1.07;;;11.50;98.20;;;;;;6062553;23;20447;-81
2024/03/14 00:48:46;;;;;;;1.50;1.10;;;11.50;98.20;;;;;;6076270;23;20435;-81
2024/03/14 00:51:14;;;;;;;1.50;1.00;;;11.50;98.20;;;;;;6062916;23;20454;-82
2024/03/14 00:53:41;;;;;;;1.50;1.00;;;11.50;98.20;;;;;;6075200;23;20422;-82
2024/03/14 00:56:07;;;;;;;1.50;1.00;;;11.50;98.20;;;;;;6066160;23;20469;-80
2024/03/14 00:58:35;;;;;;;1.50;1.00;;;11.50;98.20;;;;;;6077348;23;20755;-81
2024/03/14 01:01:01;;;;;;;1.50;1.10;;;11.50;98.20;;;;;;6065906;23;20431;-81
2024/03/14 01:03:30;;;;;;;1.50;1.00;;;11.50;98.20;;;;;;6077450;23;20458;-82
2024/03/14 01:05:58;;;;;;;1.50;1.10;;;11.50;98.20;;;;;;6064731;23;20406;-80
2024/03/14 01:08:24;;;;;;;1.57;1.10;;;11.50;98.20;;;;;;6075855;23;20414;-80
2024/03/14 01:10:51;;;;;;;1.50;1.03;;;11.50;98.20;;;;;;6061800;23;20535;-81
2024/03/14 01:13:19;;;;;;;1.50;1.10;;;11.50;98.20;;;;;;6075524;23;20438;-80
2024/03/14 01:15:46;;;;;;;1.50;1.00;;;11.50;98.20;;;;;;6075640;23;20877;-80
2024/03/14 01:18:12;;;;;;;1.50;1.10;;;11.50;98.20;;;;;;6037715;23;20462;-81
2024/03/14 01:20:39;;;;;;;1.50;1.00;;;11.50;98.20;;;;;;6075267;23;20506;-80
2024/03/14 01:23:07;;;;;;;1.50;1.07;;;11.50;98.20;;;;;;6060203;23;20537;-82
2024/03/14 01:25:34;;;;;;;1.50;1.00;;;11.50;98.20;;;;;;6075715;23;20419;-81
2024/03/14 01:28:01;;;;;;;1.50;1.00;;;11.50;98.20;;;;;;6059807;23;20454;-80
2024/03/14 01:30:28;;;;;;;1.50;1.00;;;11.50;98.20;;;;;;6074391;23;20474;-80
2024/03/14 01:32:55;;;;;;;1.50;1.00;;;11.50;98.20;;;;;;6059674;23;20573;-80
2024/03/14 01:35:24;;;;;;;1.50;1.00;;;11.40;98.20;;;;;;6074943;23;20485;-80
2024/03/14 01:37:51;;;;;;;1.50;1.10;;;11.40;98.20;;;;;;6065578;23;20456;-80
2024/03/14 01:40:17;;;;;;;1.50;1.10;;;11.40;98.20;;;;;;6074526;23;20517;-80
2024/03/14 01:42:44;;;;;;;1.60;1.17;;;11.40;98.20;;;;;;6058952;23;20453;-80
2024/03/14 01:45:14;;;;;;;1.50;1.00;;;11.40;98.20;;;;;;6074313;23;21460;-80
2024/03/14 01:47:41;;;;;;;1.50;1.00;;;11.40;98.20;;;;;;6060426;23;20458;-79
2024/03/14 01:50:08;;;;;;;1.50;1.03;;;11.30;98.20;;;;;;6074364;23;20469;-80
2024/03/14 01:52:35;;;;;;;1.50;1.00;;;11.30;98.20;;;;;;6059620;23;20513;-82
2024/03/14 01:55:02;;;;;;;1.50;1.10;;;11.30;98.20;;;;;;6075435;23;20425;-80
2024/03/14 01:57:29;;;;;;;1.50;1.10;;;11.30;98.20;;;;;;6060099;23;21279;-80
2024/03/14 01:59:58;;;;;;;1.60;1.10;;;11.20;98.20;;;;;;6075549;23;20439;-79
2024/03/14 02:02:25;;;;;;;1.50;1.10;;;11.20;98.20;;;;;;6060076;23;20442;-80
2024/03/14 02:04:53;;;;;;;1.53;1.10;;;11.10;98.20;;;;;;6070595;23;20456;-80
2024/03/14 02:07:20;;;;;;;5.27;4.83;;;11.10;98.20;;;;;;6064758;23;20449;-80
2024/03/14 02:09:47;;;;;;;1.50;1.00;;;11.10;98.20;;;;;;6075696;23;20438;-80
2024/03/14 02:12:14;;;;;;;1.53;1.10;;;11.10;98.20;;;;;;6058879;23;20454;-80
2024/03/14 02:14:40;;;;;;;1.53;1.10;;;11.10;98.20;;;;;;6073371;23;21462;-80
2024/03/14 02:17:07;;;;;;;1.50;1.10;;;11.00;98.20;;;;;;6060424;23;20497;-80
2024/03/14 02:19:34;;;;;;;1.60;1.30;;;11.00;98.20;;;;;;6075104;23;20517;-80
2024/03/14 02:22:01;;;;;;;1.53;1.10;;;11.00;98.20;;;;;;6060603;23;20512;-80
2024/03/14 02:24:28;;;;;;;1.57;1.10;;;10.90;98.20;;;;;;6075060;23;20923;-80
2024/03/14 02:26:55;;;;;;;1.50;1.00;;;10.90;98.20;;;;;;6060873;23;20454;-80
2024/03/14 02:29:22;;;;;;;1.53;1.10;;;10.90;98.20;;;;;;6075326;23;20438;-80
2024/03/14 02:31:51;;;;;;;1.60;1.10;;;10.80;98.20;;;;;;6060816;23;20506;-80
2024/03/14 02:34:19;;;;;;;1.57;1.00;;;10.70;98.20;;;;;;6074184;23;20770;-79
2024/03/14 02:36:46;;;;;;;1.60;1.20;;;10.70;98.20;;;;;;6061485;23;20513;-80
2024/03/14 02:39:14;;;;;;;1.50;1.13;;;10.70;98.20;;;;;;6076410;23;20441;-80
2024/03/14 02:41:41;;;;;;;1.50;1.10;;;10.70;98.20;;;;;;6061274;23;20506;-80
2024/03/14 02:44:15;;;;;;;1.53;1.00;;;10.60;98.20;;;;;;6075598;23;20414;-80
2024/03/14 02:46:42;;;;;;;1.53;1.10;;;10.60;98.20;;;;;;6066790;23;20449;-80
2024/03/14 02:49:10;;;;;;;1.50;1.10;;;10.50;98.20;;;;;;6076183;23;20445;-80
2024/03/14 02:51:37;;;;;;;1.57;1.20;;;10.50;98.20;;;;;;6061424;23;20525;-79
2024/03/14 02:54:05;;;;;;;1.57;1.10;;;10.50;98.20;;;;;;6075051;23;20440;-80
2024/03/14 02:56:32;;;;;;;1.53;1.20;;;10.40;98.20;;;;;;6060617;23;20486;-80
2024/03/14 02:58:59;;;;;;;1.53;1.10;;;10.40;98.20;;;;;;6074994;23;20469;-80
2024/03/14 03:01:26;;;;;;;1.50;1.10;;;10.30;98.20;;;;;;6059085;23;20819;-80
2024/03/14 03:03:54;;;;;;;1.57;1.10;;;10.30;98.20;;;;;;6074145;23;20455;-80
2024/03/14 03:06:20;;;;;;;1.53;1.20;;;10.30;98.20;;;;;;6058908;23;20493;-79
2024/03/14 03:08:47;;;;;;;1.53;1.20;;;10.20;98.20;;;;;;6074927;23;20453;-80
2024/03/14 03:11:14;;;;;;;1.57;1.10;;;10.20;98.20;;;;;;6059198;23;20514;-79
2024/03/14 03:13:41;;;;;;;1.60;1.20;;;10.10;98.20;;;;;;6073393;23;20421;-79
2024/03/14 03:16:08;;;;;;;1.50;1.10;;;10.10;98.20;;;;;;6063891;23;20442;-80
2024/03/14 03:18:38;;;;;;;1.53;1.10;;;10.10;98.20;;;;;;6075196;23;20439;-79
2024/03/14 03:21:05;;;;;;;1.53;1.10;;;10.10;98.20;;;;;;6063773;23;20469;-80
2024/03/14 03:23:31;;;;;;;1.50;1.10;;;10.00;98.20;;;;;;6073042;23;20438;-79
2024/03/14 03:25:58;;;;;;;1.50;1.10;;;10.00;98.20;;;;;;6061947;23;20427;-80
2024/03/14 03:28:26;;;;;;;1.57;1.10;;;10.00;98.20;;;;;;6073830;23;20190;-79
2024/03/14 03:30:52;;;;;;;1.57;1.20;;;10.00;98.20;;;;;;6060080;23;20419;-79
2024/03/14 03:33:20;;;;;;;1.50;1.10;;;9.90;98.20;;;;;;6072495;23;20871;-80
2024/03/14 03:35:46;;;;;;;1.50;1.10;;;9.90;98.20;;;;;;6067911;23;20426;-80
2024/03/14 03:38:13;;;;;;;1.50;1.10;;;9.90;98.20;;;;;;6071340;23;20443;-80
2024/03/14 03:40:39;;;;;;;1.60;1.20;;;9.90;98.20;;;;;;6073645;23;20183;-80
2024/03/14 03:43:07;;;;;;;1.60;1.20;;;9.90;98.20;;;;;;6059782;23;20457;-80
2024/03/14 03:45:34;;;;;;;1.50;1.10;;;9.90;98.20;;;;;;6073367;23;20418;-80
2024/03/14 03:48:01;;;;;;;1.50;1.07;;;9.90;98.20;;;;;;6057540;23;20994;-79
2024/03/14 03:50:27;;;;;;;1.57;1.20;;;9.90;98.20;;;;;;6071660;23;20776;-79
2024/03/14 03:52:54;;;;;;;1.50;1.10;;;9.90;98.20;;;;;;6058234;23;20447;-80
2024/03/14 03:55:21;;;;;;;1.50;1.20;;;9.90;98.20;;;;;;6072953;23;20638;-80
2024/03/14 03:57:48;;;;;;;1.57;1.20;;;10.00;98.20;;;;;;6059889;23;20514;-80
2024/03/14 04:05:27;;;;;;;1.60;1.20;;;10.00;98.20;;;;;;6128840;23;20418;-83
2024/03/14 04:07:53;;;;;;;1.60;1.20;;;10.00;98.20;;;;;;6090461;23;20997;-83
2024/03/14 04:10:23;;;;;;;1.60;1.30;;;10.00;98.20;;;;;;6103939;23;20424;-84
2024/03/14 04:12:50;;;;;;;1.50;1.10;;;10.00;98.20;;;;;;6089056;23;20446;-84
2024/03/14 04:15:17;;;;;;;1.50;1.20;;;10.00;98.20;;;;;;6075934;23;20937;-84
2024/03/14 04:17:43;;;;;;;1.53;1.17;;;10.00;98.20;;;;;;6084559;23;20746;-84
2024/03/14 04:20:12;;;;;;;1.50;1.20;;;10.00;98.20;;;;;;6053954;23;20986;-81
2024/03/14 04:22:40;;;;;;;1.53;1.10;;;10.00;98.20;;;;;;6093278;23;20456;-85
2024/03/14 04:25:10;;;;;;;1.57;1.20;;;10.00;98.20;;;;;;6062519;23;20422;-84
2024/03/14 04:27:40;;;;;;;1.57;1.10;;;9.90;98.20;;;;;;6084402;23;20481;-84
2024/03/14 04:30:07;;;;;;;1.53;1.20;;;9.90;98.20;;;;;;6053203;23;20419;-83
2024/03/14 04:32:34;;;;;;;1.50;1.20;;;10.00;98.20;;;;;;6081372;23;20532;-84
2024/03/14 04:35:03;;;;;;;1.57;1.10;;;10.00;98.20;;;;;;6053480;23;20419;-84
2024/03/14 04:37:31;;;;;;;1.50;1.10;;;10.00;98.20;;;;;;6084532;23;20864;-83
2024/03/14 04:39:58;;;;;;;1.60;1.30;;;10.00;98.20;;;;;;6054818;23;20422;-83
2024/03/14 04:42:25;;;;;;;1.57;1.10;;;10.00;98.20;;;;;;6080234;23;20814;-84
2024/03/14 04:44:54;;;;;;;1.50;1.10;;;10.00;98.20;;;;;;6054703;23;20998;-83
2024/03/14 04:47:21;;;;;;;1.57;1.20;;;10.00;98.20;;;;;;6078993;23;20454;-83
2024/03/14 04:49:48;;;;;;;1.70;1.40;;;10.00;98.20;;;;;;6057410;23;20419;-85
2024/03/14 04:52:16;;;;;;;1.50;1.10;;;10.00;98.20;;;;;;6077339;23;20759;-83
2024/03/14 04:54:43;;;;;;;1.50;1.10;;;10.00;98.20;;;;;;6056030;23;20407;-84
2024/03/14 04:57:11;;;;;;;1.53;1.10;;;10.00;98.20;;;;;;6077127;23;20450;-84
2024/03/14 04:59:40;;;;;;;1.50;1.10;;;10.00;98.20;;;;;;6058185;23;20419;-84
2024/03/14 05:02:08;;;;;;;1.50;1.10;;;10.00;98.20;;;;;;6077817;23;20532;-85
2024/03/14 05:04:35;;;;;;;1.57;1.20;;;10.00;98.20;;;;;;6059410;23;20497;-84
2024/03/14 05:07:02;;;;;;;1.60;1.20;;;10.00;98.20;;;;;;6079299;23;20445;-84
2024/03/14 05:09:29;;;;;;;1.57;1.13;;;10.00;98.20;;;;;;6058824;23;20419;-84
2024/03/14 05:11:56;;;;;;;1.50;1.20;;;10.00;98.20;;;;;;6074224;23;20480;-84
2024/03/14 05:14:23;;;;;;;1.53;1.20;;;10.00;98.20;;;;;;6069540;23;20501;-85
2024/03/14 05:16:50;;;;;;;1.53;1.20;;;10.00;98.20;;;;;;6071923;23;20449;-84
2024/03/14 05:19:20;;;;;;;1.50;1.10;;;10.00;98.20;;;;;;6062428;23;20418;-85
2024/03/14 05:21:47;;;;;;;1.53;1.10;;;10.00;98.20;;;;;;6074890;23;20438;-82
2024/03/14 05:24:16;;;;;;;1.50;1.20;;;10.00;98.20;;;;;;6071183;23;20576;-82
2024/03/14 05:26:43;;;;;;;1.53;1.10;;;10.00;98.20;;;;;;6072155;23;20449;-84
2024/03/14 05:29:10;;;;;;;1.60;1.27;;;10.00;98.20;;;;;;6064801;23;20513;-84
2024/03/14 05:31:37;;;;;;;1.90;1.80;;;10.00;98.20;;;;;;6075680;23;20450;-84
2024/03/14 05:34:04;;;;;;;1.50;1.10;;;10.00;98.20;;;;;;6063549;23;20435;-83
2024/03/14 05:36:31;;;;;;;1.50;1.10;;;10.00;98.20;;;;;;6067540;23;20453;-82
2024/03/14 05:38:58;;;;;;;1.57;1.10;;;10.00;98.20;;;;;;6065138;23;20967;-82
2024/03/14 05:41:25;;;;;;;1.50;1.10;;;10.00;98.20;;;;;;6067680;23;20522;-83
2024/03/14 05:43:52;;;;;;;1.53;1.10;;;10.00;98.20;;;;;;6067120;23;20494;-83
2024/03/14 05:46:19;;;;;;;1.53;1.10;;;10.00;98.20;;;;;;6065726;23;20442;-84
2024/03/14 05:48:46;;;;;;;1.53;1.20;;;9.90;98.20;;;;;;6067104;23;20803;-84
2024/03/14 05:51:13;;;;;;;1.50;1.17;;;9.90;98.20;;;;;;6063954;23;20874;-84
2024/03/14 05:53:40;;;;;;;1.50;1.10;;;9.90;98.20;;;;;;6077805;23;20470;-84
2024/03/14 05:56:09;;;;;;;1.60;1.30;;;9.90;98.20;;;;;;6073346;23;20425;-85
2024/03/14 05:58:37;;;;;;;1.60;1.27;;;9.90;98.20;;;;;;6070147;23;20411;-85
2024/03/14 06:01:06;;;;;;;1.60;1.30;;;9.90;98.20;;;;;;6063295;23;20450;-83
2024/03/14 06:03:33;;;;;;;1.53;1.13;;;9.80;98.20;;;;;;6069932;23;20459;-82
2024/03/14 06:06:00;;;;;;;1.50;1.10;;;9.80;98.20;;;;;;6063702;23;20429;-84
2024/03/14 06:08:28;;;;;;;1.60;1.30;;;9.80;98.20;;;;;;6073112;23;20478;-84
2024/03/14 06:10:54;;;;;;;1.50;1.10;;;9.80;98.20;;;;;;6062558;23;20794;-84
2024/03/14 06:13:22;;;;;;;1.50;1.20;;;9.80;98.20;;;;;;6071702;23;20521;-81
2024/03/14 06:15:50;;;;;;;1.50;1.20;;;9.80;98.20;;;;;;6060550;23;20807;-84
2024/03/14 06:18:19;;;;;;;1.50;1.10;;;9.80;98.20;;;;;;6073751;23;20422;-83
2024/03/14 06:20:46;;;;;;;1.50;1.10;;;9.80;98.20;;;;;;6083356;23;20562;-82
2024/03/14 06:23:13;;;;;;;1.60;1.40;;;9.80;98.20;;;;;;6031494;23;20471;-83
2024/03/14 06:25:40;;;;;;;1.57;1.10;;;9.80;98.20;;;;;;6068361;23;20415;-81
2024/03/14 06:28:08;;;;;;;1.53;1.10;;;9.80;98.20;;;;;;6078601;23;20455;-82
2024/03/14 06:30:35;;;;;;;1.53;1.10;;;9.80;98.20;;;;;;6077387;23;20430;-83
2024/03/14 06:33:02;;;;;;;1.50;1.07;;;9.80;98.20;;;;;;6080141;23;20689;-82
2024/03/14 06:35:29;;;;;;;1.53;1.10;;;9.80;98.20;;;;;;6066961;23;20424;-82
2024/03/14 06:37:56;;;;;;;1.53;1.20;;;9.80;98.20;;;;;;6081973;23;20453;-83
2024/03/14 06:40:23;;;;;;;1.50;1.10;;;9.80;98.20;;;;;;6067675;23;20459;-83
2024/03/14 06:42:50;;;;;;;1.53;1.10;;;9.80;98.20;;;;;;6081761;23;20465;-82
2024/03/14 06:45:19;;;;;;;1.50;1.10;;;9.90;98.20;;;;;;6068918;23;20419;-83
2024/03/14 06:47:46;;;;;;;1.60;1.10;;;9.90;98.20;;;;;;6082181;23;20449;-83
2024/03/14 06:50:14;;;;;;;1.50;1.10;;;9.90;98.20;;;;;;6043796;23;21027;-83
2024/03/14 06:52:41;;;;;;;1.50;1.10;;;10.00;98.20;;;;;;6083775;23;20454;-83
2024/03/14 06:55:09;;;;;;;1.60;1.13;;;10.00;98.20;;;;;;6046513;23;20420;-83
2024/03/14 06:57:39;;;;;;;2.17;1.97;;;10.10;98.20;;;;;;6077849;23;20453;-83
2024/03/14 07:00:12;;;;;;;1.53;1.10;;;10.30;98.20;;;;;;6047300;23;20444;-85
2024/03/14 07:02:41;;;;;;;1.60;1.20;;;10.50;98.20;;;;;;6082973;23;21005;-84
2024/03/14 07:05:09;;;;;;;1.60;1.10;;;10.70;98.20;;;;;;6056357;23;20466;-83
2024/03/14 07:10:19;;;;;;;1.60;1.40;;;11.20;98.20;;;;;;6022694;23;20423;-85
2024/03/14 07:12:46;;;;;;;1.60;1.10;;;11.40;98.20;;;;;;6085068;23;20458;-82
2024/03/14 07:15:17;;;;;;;1.50;1.10;;;11.60;98.20;;;;;;6093594;23;20419;-84
2024/03/14 07:17:44;;;;;;;1.60;1.10;;;11.80;98.20;;;;;;6062083;23;20449;-84
2024/03/14 07:20:16;;;;;;;1.50;1.00;;;12.00;98.20;;;;;;6044497;23;20580;-82
2024/03/14 07:22:43;;;;;;;1.60;1.00;;;12.10;98.20;;;;;;6083585;23;20483;-83
2024/03/14 07:25:13;;;;;;;1.50;1.00;;;12.10;98.20;;;;;;6092313;23;20512;-83
2024/03/14 07:27:40;;;;;;;1.57;1.00;;;12.10;98.20;;;;;;6081704;23;20519;-80
2024/03/14 07:30:13;;;;;;;1.53;1.00;;;12.20;98.20;;;;;;6102522;23;20476;-83
2024/03/14 07:32:43;;;;;;;1.50;1.10;;;12.20;98.20;;;;;;6080749;23;20457;-85
2024/03/14 07:35:10;;;;;;;1.50;1.00;;;12.10;98.20;;;;;;6102635;23;20511;-82
2024/03/14 07:37:47;;;;;;;1.53;1.00;;;12.00;98.20;;;;;;6088932;23;20442;-83
2024/03/14 07:40:16;;;;;;;1.50;1.00;;;12.00;98.20;;;;;;6105486;23;20932;-83
2024/03/14 07:42:44;;;;;;;1.60;1.10;;;12.00;98.20;;;;;;6084380;23;20626;-81
2024/03/14 07:45:16;;;;;;;1.60;1.10;;;12.10;98.20;;;;;;6093666;23;20465;-83
2024/03/14 07:47:44;;;;;;;1.57;1.00;;;12.20;98.20;;;;;;6081272;23;20505;-82
2024/03/14 07:50:11;;;;;;;1.50;1.00;;;12.20;98.20;;;;;;6093216;23;20426;-82
2024/03/14 07:52:39;;;;;;;1.50;1.00;;;12.30;98.20;;;;;;6081766;23;20533;-82
2024/03/14 07:55:09;;;;;;;1.53;1.00;;;12.40;98.20;;;;;;6092284;23;20419;-83
2024/03/14 07:57:36;;;;;;;1.53;1.00;;;12.60;98.20;;;;;;6081282;23;20501;-81
2024/03/14 08:00:08;;;;;;;1.57;1.00;;;12.70;98.20;;;;;;6093191;23;20506;-82
2024/03/14 08:02:35;;;;;;;1.50;1.00;;;12.90;98.20;;;;;;6083337;23;20458;-83
2024/03/14 08:05:06;;;;;;;1.50;1.00;;;12.90;98.20;;;;;;6101850;23;20543;-83
2024/03/14 08:07:33;;;;;;;1.57;1.00;;;13.00;98.20;;;;;;6082028;23;20466;-82
2024/03/14 08:10:00;;;;;;;1.50;1.00;;;13.00;98.20;;;;;;6092177;23;20419;-82
2024/03/14 08:12:35;;;;;;;1.50;1.00;;;13.00;98.20;;;;;;6082668;23;20517;-84
2024/03/14 08:15:11;;;;;;;1.53;1.03;;;13.00;98.20;;;;;;6091776;23;20714;-84
2024/03/14 08:17:39;;;;;;;1.57;1.00;;;13.00;98.20;;;;;;6082896;23;20484;-81
2024/03/14 08:20:09;;;;;;;1.53;1.00;;;13.00;98.20;;;;;;6092884;23;20427;-82
2024/03/14 08:22:36;;;;;;;1.50;1.00;;;13.00;98.20;;;;;;6084777;23;20843;-82
2024/03/14 08:25:03;;;;;;;4.83;1.57;;;13.10;98.20;;;;;;6093864;23;20451;-84
2024/03/14 08:27:30;;;;;;;1.60;1.00;;;13.10;98.20;;;;;;6085644;23;20450;-84
2024/03/14 08:29:57;;;;;;;1.53;1.00;;;13.30;98.20;;;;;;6091610;23;20431;-83
2024/03/14 08:32:24;;;;;;;1.50;1.00;;;13.30;98.20;;;;;;6082379;23;20889;-84
2024/03/14 08:34:53;;;;;;;1.60;1.30;;;13.40;98.20;;;;;;6089410;23;20430;-84
2024/03/14 08:37:21;;;;;;;1.53;1.00;;;13.50;98.20;;;;;;6082832;23;20450;-83
2024/03/14 08:39:49;;;;;;;1.57;1.00;;;13.50;98.20;;;;;;6093869;23;21127;-84
2024/03/14 08:42:23;;;;;;;1.50;1.00;;;13.60;98.20;;;;;;6087848;23;20529;-83
2024/03/14 08:44:51;;;;;;;1.57;1.10;;;13.70;98.20;;;;;;6091399;23;20478;-83
2024/03/14 08:47:21;;;;;;;1.50;0.90;;;13.60;98.20;;;;;;6081559;23;20525;-81
2024/03/14 08:49:50;;;;;;;1.57;1.00;;;13.60;98.20;;;;;;6103669;23;20507;-84
2024/03/14 08:52:17;;;;;;;1.50;1.00;;;13.60;98.20;;;;;;6054314;23;20513;-83
2024/03/14 08:54:49;;;;;;;1.53;1.00;;;13.70;98.20;;;;;;6059028;23;20480;-84
2024/03/14 08:57:59;;;;;;;1.50;1.00;;;13.80;98.20;;;;;;6086500;23;20670;-86
2024/03/14 09:00:43;;;;;;;1.57;1.00;;;14.10;98.20;;;;;;6060983;23;20976;-85
2024/03/14 09:03:10;;;;;;;1.50;1.00;;;14.40;98.20;;;;;;6078992;23;20820;-86
2024/03/14 09:05:42;;;;;;;1.53;1.00;;;14.70;98.20;;;;;;6072095;23;20449;-84
2024/03/14 09:08:18;;;;;;;1.57;1.00;;;14.80;98.20;;;;;;6075522;23;20454;-85
2024/03/14 09:10:58;;;;;;;1.60;1.00;;;14.80;98.20;;;;;;6083722;23;20469;-86
2024/03/14 09:13:25;;;;;;;1.60;1.20;;;15.00;98.20;;;;;;6087549;23;20438;-84
2024/03/14 09:19:00;;;;;;;1.50;1.00;;;15.50;98.20;;;;;;6089198;23;20427;-83
2024/03/14 09:24:17;;;;;;;1.53;0.90;;;15.70;98.20;;;;;;6064095;23;20457;-82
2024/03/14 09:30:36;;;;;;;1.53;1.00;;;15.90;98.20;;;;;;5934192;24;20424;-84
2024/03/14 09:33:37;;;;;;;;;;;;;;;;;;;;;
2024/03/14 09:38:53;;;;;;;1.50;0.90;;;16.10;98.20;;;;;;5849708;24;20425;-83
2024/03/14 09:41:32;;;;;;;1.50;1.00;;;16.20;98.20;;;;;;5929274;23;20528;-83
2024/03/14 09:47:32;;;;;;;1.57;1.00;;;16.10;98.20;;;;;;6024164;23;20463;-82
2024/03/14 09:49:59;;;;;;;1.57;1.00;;;16.10;98.20;;;;;;6060550;23;20437;-80
2024/03/14 09:52:46;;;;;;;;;;;;;;;;;;;;;
2024/03/14 09:56:08;;;;;;;1.50;0.90;;;16.30;98.20;;;;;;6070444;23;20637;-81
2024/03/14 09:58:37;;;;;;;1.50;0.90;;;16.30;98.20;;;;;;5996691;23;20433;-84
2024/03/14 10:01:09;;;;;;;1.53;0.90;;;16.40;98.20;;;;;;6060224;23;20863;-83
2024/03/14 10:03:40;;;;;;;1.50;1.00;;;16.40;98.20;;;;;;6080683;23;20509;-84
2024/03/14 10:06:15;;;;;;;1.53;0.90;;;16.40;98.20;;;;;;6079692;23;21110;-78
2024/03/14 10:08:46;;;;;;;1.50;1.00;;;16.50;98.20;;;;;;6141522;23;20728;-81
2024/03/14 10:11:14;;;;;;;1.50;0.90;;;16.50;98.20;;;;;;6122672;23;20441;-80
2024/03/14 10:13:43;;;;;;;1.50;0.97;;;16.40;98.20;;;;;;6130667;23;20412;-79
2024/03/14 10:16:17;;;;;;;1.50;0.93;;;16.30;98.20;;;;;;6120257;23;20512;-81
2024/03/14 10:18:46;;;;;;;1.53;1.10;;;16.20;98.20;;;;;;6115381;23;20413;-80
2024/03/14 10:21:13;;;;;;;1.50;0.90;;;16.10;98.20;;;;;;6090268;23;20456;-80
2024/03/14 10:23:40;;;;;;;1.50;1.00;;;16.10;98.20;;;;;;6096408;23;20421;-79
2024/03/14 10:26:07;;;;;;;1.50;0.90;;;16.30;98.20;;;;;;6085102;23;20910;-80
2024/03/14 10:28:34;;;;;;;1.50;0.90;;;16.30;98.20;;;;;;6097095;23;20410;-79
2024/03/14 10:31:05;;;;;;;1.50;0.90;;;16.50;98.20;;;;;;6084917;23;20512;-79
2024/03/14 10:33:32;;;;;;;1.50;0.90;;;16.90;98.20;;;;;;6105658;23;20410;-79
2024/03/14 10:35:59;;;;;;;1.50;0.90;;;17.20;98.20;;;;;;6092016;23;20521;-78
2024/03/14 10:38:26;;;;;;;1.50;1.00;;;17.20;98.20;;;;;;6095783;23;20418;-79
2024/03/14 10:40:57;;;;;;;1.50;1.00;;;17.10;98.20;;;;;;6082810;23;20417;-80
2024/03/14 10:43:25;;;;;;;1.50;1.00;;;17.30;98.20;;;;;;6094614;23;20417;-80
2024/03/14 10:45:53;;;;;;;1.53;0.97;;;17.30;98.20;;;;;;6081124;23;20460;-80
2024/03/14 10:48:23;;;;;;;1.50;0.90;;;17.20;98.20;;;;;;6096505;23;20903;-78
2024/03/14 10:50:54;;;;;;;1.50;0.90;;;17.10;98.20;;;;;;6079288;23;20821;-79
2024/03/14 10:53:21;;;;;;;1.50;1.00;;;17.00;98.20;;;;;;6095572;23;20398;-80
2024/03/14 10:55:49;;;;;;;1.50;0.90;;;16.90;98.20;;;;;;6080468;23;20950;-78
2024/03/14 10:58:16;;;;;;;1.50;0.90;;;17.00;98.20;;;;;;6095070;23;20914;-79
2024/03/14 11:00:44;;;;;;;1.50;0.90;;;17.10;98.20;;;;;;6093778;23;20449;-78
2024/03/14 11:03:17;;;;;;;1.50;0.90;;;17.40;98.20;;;;;;6057932;23;20837;-79
2024/03/14 11:05:45;;;;;;;1.53;0.90;;;17.60;98.20;;;;;;6104111;23;20456;-79
2024/03/14 11:08:14;;;;;;;1.50;0.90;;;17.60;98.20;;;;;;6057181;23;20497;-77
2024/03/14 11:10:41;;;;;;;1.50;0.90;;;17.60;98.20;;;;;;6094272;23;20422;-77
2024/03/14 11:13:10;;;;;;;1.50;1.00;;;17.80;98.20;;;;;;6080787;23;20449;-77
2024/03/14 11:15:37;;;;;;;1.90;1.40;;;17.60;98.20;;;;;;6094473;23;20434;-77
2024/03/14 11:18:05;;;;;;;1.50;0.90;;;17.70;98.20;;;;;;6084476;23;20449;-79
2024/03/14 11:20:32;;;;;;;1.57;1.00;;;17.80;98.20;;;;;;6069591;23;20442;-79
2024/03/14 11:23:23;;;;;;;1.50;0.93;;;18.10;98.20;;;;;;5084409;27;20319;-80
2024/03/14 11:25:52;;;;;;;1.50;0.90;;;18.30;98.20;;;;;;5058376;28;322985;-79
2024/03/14 11:28:19;;;;;;;1.53;1.00;;;18.20;98.20;;;;;;5075107;28;20335;-79
2024/03/14 11:30:51;;;;;;;1.50;1.00;;;18.20;98.20;;;;;;5058064;28;20695;-78
2024/03/14 11:33:18;;;;;;;1.53;0.90;;;18.30;98.20;;;;;;5091896;28;20465;-79
2024/03/14 11:35:47;;;;;;;1.50;0.90;;;18.50;98.20;;;;;;5086081;28;20917;-81
2024/03/14 11:38:24;;;;;;;1.53;0.93;;;18.70;98.20;;;;;;5051381;28;20651;-77
2024/03/14 11:40:53;;;;;;;1.50;0.90;;;18.70;97.60;;;;;;5079220;28;20464;-78
2024/03/14 11:43:21;;;;;;;1.50;0.90;;;18.60;98.20;;;;;;5067380;28;20900;-79
2024/03/14 11:45:49;;;;;;;1.50;0.90;;;18.70;98.20;;;;;;5064170;28;20481;-79
2024/03/14 11:48:19;;;;;;;1.50;0.90;;;18.90;98.20;;;;;;5075572;28;20468;-80
2024/03/14 11:50:47;;;;;;;1.50;0.90;;;18.90;96.20;;;;;;5090553;28;20912;-79
2024/03/14 11:53:14;;;;;;;1.50;0.90;;;18.80;96.80;;;;;;5061672;28;20746;-82
2024/03/14 11:55:43;;;;;;;1.50;0.90;;;18.90;97.90;;;;;;5076977;28;20582;-78
2024/03/14 11:58:14;;;;;;;1.50;0.90;;;19.00;97.00;;;;;;5087734;28;20563;-80
2024/03/14 12:00:41;;;;;;;1.50;0.90;;;18.90;96.40;;;;;;5073189;28;20934;-78
2024/03/14 12:03:09;;;;;;;1.70;1.30;;;19.10;96.70;;;;;;5072230;28;20495;-79
2024/03/14 12:05:41;;;;;;;1.50;1.00;;;19.10;96.80;;;;;;5079012;28;20476;-78
2024/03/14 12:08:14;;;;;;;1.50;0.90;;;19.30;96.30;;;;;;5084399;28;20827;-78
2024/03/14 12:10:42;;;;;;;1.50;0.90;;;19.30;95.70;;;;;;5073829;28;20466;-77
2024/03/14 12:13:13;;;;;;;1.50;0.90;;;19.40;95.80;;;;;;5082175;28;20502;-79
2024/03/14 12:15:41;;;;;;;1.50;0.93;;;19.50;95.70;;;;;;5072145;28;20522;-77
2024/03/14 12:18:10;;;;;;;1.50;0.90;;;19.60;95.40;;;;;;5073071;28;20582;-77
2024/03/14 12:20:37;;;;;;;1.60;1.20;;;19.80;94.50;;;;;;5071765;28;20471;-80
2024/03/14 12:23:07;;;;;;;1.50;0.90;;;19.80;94.60;;;;;;5055161;28;20859;-80
2024/03/14 12:25:37;;;;;;;1.50;0.90;;;20.00;95.70;;;;;;5076692;28;20480;-79
2024/03/14 12:28:04;;;;;;;1.50;0.90;;;20.10;95.10;;;;;;5080525;28;21008;-80
2024/03/14 12:30:33;;;;;;;1.50;0.90;;;20.10;93.50;;;;;;5078326;28;20471;-80
2024/03/14 12:33:01;;;;;;;1.50;0.90;;;20.00;93.70;;;;;;5063093;28;20917;-80
2024/03/14 12:35:28;;;;;;;1.50;0.90;;;19.80;92.90;;;;;;5080080;28;20519;-82
2024/03/14 12:37:54;;;;;;;1.47;0.90;;;19.40;92.90;;;;;;5050742;28;20475;-82
2024/03/14 12:40:22;;;;;;;1.50;0.93;;;19.00;93.80;;;;;;5062858;28;20749;-78
2024/03/14 12:42:50;;;;;;;1.50;0.90;;;18.90;96.10;;;;;;5052519;28;20556;-78
2024/03/14 12:45:17;;;;;;;1.50;0.90;;;18.90;97.10;;;;;;5062767;28;20586;-79
2024/03/14 12:47:45;;;;;;;1.50;0.90;;;19.00;96.10;;;;;;5056644;28;20493;-79
2024/03/14 12:50:21;;;;;;;1.50;1.00;;;19.10;96.40;;;;;;5060055;28;20487;-80
2024/03/14 12:53:02;;;;;;;1.50;0.90;;;19.40;95.60;;;;;;5054084;28;20479;-80
2024/03/14 12:55:29;;;;;;;1.50;0.90;;;19.50;95.00;;;;;;5057760;28;20563;-81
2024/03/14 12:57:56;;;;;;;1.40;0.87;;;19.50;94.10;;;;;;5052966;28;20482;-81
2024/03/14 13:00:26;;;;;;;1.47;0.90;;;19.50;93.40;;;;;;5056512;28;20469;-81
2024/03/14 13:02:53;;;;;;;2.40;2.20;;;19.50;93.30;;;;;;5047043;28;20484;-80
2024/03/14 13:05:21;;;;;;;1.50;0.90;;;19.70;93.20;;;;;;5078409;28;20465;-79
2024/03/14 13:08:05;;;;;;;1.47;0.90;;;19.80;93.40;;;;;;5049855;28;20480;-80
2024/03/14 13:10:35;;;;;;;1.50;0.90;;;20.10;93.80;;;;;;5063913;28;20478;-81
2024/03/14 13:13:02;;;;;;;1.50;0.90;;;20.30;93.20;;;;;;5051216;28;21025;-79
2024/03/14 13:15:31;;;;;;;1.50;0.90;;;20.50;92.90;;;;;;5082920;28;20559;-81
2024/03/14 13:17:58;;;;;;;1.47;0.90;;;20.50;91.20;;;;;;5059384;28;20547;-80
2024/03/14 13:20:27;;;;;;;1.50;0.90;;;20.10;92.20;;;;;;5063884;28;20484;-79
2024/03/14 13:22:54;;;;;;;1.50;0.93;;;19.80;93.50;;;;;;5048470;28;20468;-80